Time;durP1;ratioP1;P1;durP2;ratioP2;P2;SDS_P1;SDS_P2;PMS_P1;PMS_P2;Temp;Humidity;BMP_temperature;BMP_pressure;BME280_temperature;BME280_humidity;BME280_pressure;Samples;Min_cycle;Max_cycle;Signal;HPM_P1;HPM_P2
2021/12/09 00:00:37;;;;;;;12.82;3.97;;;21.30;76.90;;;;;;5107995;27;20027;-72
2021/12/09 00:03:05;;;;;;;17.38;3.90;;;21.30;77.00;;;;;;5103574;28;20020;-71
2021/12/09 00:05:34;;;;;;;9.43;3.38;;;21.30;77.10;;;;;;5107254;27;20051;-70
2021/12/09 00:08:00;;;;;;;16.58;4.93;;;21.30;77.00;;;;;;5110050;27;20015;-71
2021/12/09 00:10:27;;;;;;;10.45;3.97;;;21.30;77.30;;;;;;5108045;28;20039;-70
2021/12/09 00:12:54;;;;;;;10.80;2.70;;;21.30;77.30;;;;;;5106760;27;20474;-71
2021/12/09 00:15:21;;;;;;;13.20;4.13;;;21.20;77.30;;;;;;5110112;27;20022;-71
2021/12/09 00:17:47;;;;;;;15.50;4.10;;;21.20;77.40;;;;;;5105940;27;20406;-72
2021/12/09 00:20:15;;;;;;;12.82;3.45;;;21.20;77.60;;;;;;5110473;27;20030;-75
2021/12/09 00:22:42;;;;;;;14.15;2.97;;;21.20;77.60;;;;;;5108024;27;20408;-71
2021/12/09 00:25:09;;;;;;;13.25;3.28;;;21.20;77.80;;;;;;5110728;27;21493;-71
2021/12/09 00:27:35;;;;;;;9.35;3.35;;;21.20;77.80;;;;;;5107625;27;20058;-71
2021/12/09 00:30:04;;;;;;;17.40;4.95;;;21.10;78.00;;;;;;5108838;27;20472;-71
2021/12/09 00:32:31;;;;;;;11.90;2.67;;;21.10;77.90;;;;;;5107578;27;20108;-71
2021/12/09 00:34:57;;;;;;;12.57;4.28;;;21.10;78.00;;;;;;5105486;27;20012;-71
2021/12/09 00:37:53;;;;;;;13.90;3.67;;;21.10;78.10;;;;;;5092426;27;20027;-72
2021/12/09 00:40:13;;;;;;;9.40;3.50;;;21.10;78.30;;;;;;5108459;27;20028;-72
2021/12/09 00:42:39;;;;;;;12.15;3.47;;;21.10;78.30;;;;;;5108048;27;20023;-72
2021/12/09 00:45:06;;;;;;;12.85;3.65;;;21.10;78.30;;;;;;5106909;27;20015;-71
2021/12/09 00:47:32;;;;;;;10.27;3.75;;;21.10;78.40;;;;;;5107601;27;20194;-72
2021/12/09 00:49:59;;;;;;;13.98;3.70;;;21.10;78.60;;;;;;5106424;27;20134;-71
2021/12/09 00:52:27;;;;;;;13.82;3.45;;;21.00;78.60;;;;;;5103740;27;20026;-72
2021/12/09 00:54:55;;;;;;;15.95;3.47;;;21.00;78.80;;;;;;5106936;27;20074;-71
2021/12/09 00:57:23;;;;;;;18.38;4.47;;;21.00;78.80;;;;;;5106576;28;20067;-74
2021/12/09 00:59:50;;;;;;;17.30;3.55;;;21.00;78.90;;;;;;5108240;27;20055;-71
2021/12/09 01:02:18;;;;;;;19.02;3.60;;;21.00;79.00;;;;;;5106909;27;20065;-71
2021/12/09 01:04:46;;;;;;;12.38;4.53;;;20.90;78.90;;;;;;5108786;27;20400;-73
2021/12/09 01:07:13;;;;;;;12.02;3.05;;;20.90;79.20;;;;;;5108426;27;20027;-72
2021/12/09 01:09:40;;;;;;;12.68;3.50;;;20.90;79.30;;;;;;5102790;28;20518;-72
2021/12/09 01:12:07;;;;;;;12.48;3.67;;;20.90;79.40;;;;;;5103825;27;20016;-71
2021/12/09 01:14:37;;;;;;;9.43;3.22;;;20.90;79.50;;;;;;5106629;27;20413;-71
2021/12/09 01:17:06;;;;;;;11.80;3.40;;;20.80;79.50;;;;;;5108844;27;20035;-73
2021/12/09 01:19:33;;;;;;;8.30;2.72;;;20.80;79.50;;;;;;5108365;27;20065;-72
2021/12/09 01:21:59;;;;;;;14.93;4.20;;;20.80;79.50;;;;;;5107548;27;20020;-75
2021/12/09 01:24:26;;;;;;;13.73;3.90;;;20.80;79.50;;;;;;5109596;27;20035;-72
2021/12/09 01:26:52;;;;;;;14.45;3.78;;;20.70;79.60;;;;;;5105887;27;20075;-71
2021/12/09 01:29:28;;;;;;;12.90;3.60;;;20.70;79.70;;;;;;5108702;27;20031;-71
2021/12/09 01:32:00;;;;;;;17.00;4.90;;;20.70;79.80;;;;;;5106221;27;20055;-71
2021/12/09 01:34:27;;;;;;;12.82;3.70;;;20.70;79.80;;;;;;5106123;27;20031;-71
2021/12/09 01:36:53;;;;;;;16.10;4.10;;;20.70;79.80;;;;;;5108539;27;20477;-71
2021/12/09 01:39:21;;;;;;;16.77;3.72;;;20.70;79.80;;;;;;5108375;27;20026;-72
2021/12/09 01:41:48;;;;;;;11.18;3.63;;;20.70;79.90;;;;;;5104343;27;20042;-71
2021/12/09 01:44:15;;;;;;;13.85;3.58;;;20.70;80.00;;;;;;5102835;27;20023;-72
2021/12/09 01:46:41;;;;;;;8.38;2.47;;;20.70;80.00;;;;;;5104658;28;20023;-71
2021/12/09 01:49:09;;;;;;;13.07;3.35;;;20.70;80.30;;;;;;5107251;27;21037;-71
2021/12/09 01:51:36;;;;;;;17.67;4.18;;;20.70;80.30;;;;;;5110740;27;20102;-72
2021/12/09 01:54:03;;;;;;;14.90;3.45;;;20.70;80.40;;;;;;5104545;27;20082;-72
2021/12/09 01:56:30;;;;;;;18.33;4.43;;;20.70;80.40;;;;;;5109237;27;20023;-72
2021/12/09 01:59:00;;;;;;;11.18;2.92;;;20.70;80.50;;;;;;5106654;27;20362;-71
2021/12/09 02:01:27;;;;;;;13.70;4.15;;;20.70;80.70;;;;;;5104578;27;20018;-71
2021/12/09 02:03:55;;;;;;;13.20;4.50;;;20.70;80.80;;;;;;5105757;27;20023;-71
2021/12/09 02:06:22;;;;;;;14.38;3.80;;;20.70;81.40;;;;;;5103535;27;20500;-72
2021/12/09 02:08:49;;;;;;;23.48;4.95;;;20.70;80.60;;;;;;5103664;27;20012;-72
2021/12/09 02:11:16;;;;;;;17.35;3.95;;;20.60;80.60;;;;;;5104821;27;20114;-71
2021/12/09 02:13:44;;;;;;;18.20;4.28;;;20.60;81.00;;;;;;5109935;27;20019;-72
2021/12/09 02:16:11;;;;;;;12.63;4.28;;;20.60;81.00;;;;;;5106194;27;20015;-72
2021/12/09 02:18:38;;;;;;;16.80;4.68;;;20.60;80.90;;;;;;5108840;27;20042;-71
2021/12/09 02:21:09;;;;;;;10.93;2.65;;;20.60;80.80;;;;;;5102690;28;20102;-72
2021/12/09 02:23:36;;;;;;;14.00;4.38;;;20.60;80.80;;;;;;5106631;27;20543;-72
2021/12/09 02:26:04;;;;;;;10.60;2.97;;;20.60;80.90;;;;;;5105814;27;20015;-71
2021/12/09 02:28:32;;;;;;;11.18;2.90;;;20.60;81.00;;;;;;5101493;27;20058;-71
2021/12/09 02:30:59;;;;;;;16.02;4.43;;;20.60;81.00;;;;;;5103981;27;20099;-71
2021/12/09 02:33:26;;;;;;;12.07;3.22;;;20.60;81.10;;;;;;5104298;27;20104;-71
2021/12/09 02:35:53;;;;;;;12.73;4.82;;;20.60;81.90;;;;;;5105088;27;20055;-71
2021/12/09 02:38:19;;;;;;;14.32;3.67;;;20.60;81.30;;;;;;5102476;27;20078;-71
2021/12/09 02:40:48;;;;;;;9.15;3.17;;;20.60;81.40;;;;;;5101972;27;20026;-73
2021/12/09 02:43:22;;;;;;;16.55;3.92;;;20.60;81.60;;;;;;5103798;28;20016;-71
2021/12/09 02:45:52;;;;;;;16.75;3.65;;;20.60;81.50;;;;;;5106736;27;20027;-72
2021/12/09 02:48:20;;;;;;;12.20;2.92;;;20.60;81.50;;;;;;5109314;27;20134;-72
2021/12/09 02:50:47;;;;;;;11.75;3.78;;;20.50;81.50;;;;;;5105604;27;20027;-74
2021/12/09 02:53:14;;;;;;;11.20;3.05;;;20.50;81.70;;;;;;5102457;27;20118;-71
2021/12/09 02:55:40;;;;;;;13.00;3.80;;;20.50;81.80;;;;;;5105001;27;20016;-71
2021/12/09 02:58:07;;;;;;;15.98;3.55;;;20.50;81.80;;;;;;5084756;28;20043;-71
2021/12/09 03:00:33;;;;;;;16.83;3.92;;;20.50;82.10;;;;;;5103926;27;20106;-71
2021/12/09 03:03:00;;;;;;;20.88;4.50;;;20.50;82.10;;;;;;5103871;27;20020;-71
2021/12/09 03:05:27;;;;;;;21.67;4.22;;;20.40;82.20;;;;;;5106550;28;20124;-71
2021/12/09 03:07:54;;;;;;;12.30;3.15;;;20.40;82.40;;;;;;5105071;28;20039;-70
2021/12/09 03:10:25;;;;;;;16.98;3.72;;;20.40;82.40;;;;;;5102521;27;20061;-71
2021/12/09 03:13:00;;;;;;;18.83;3.97;;;20.40;82.50;;;;;;5106252;28;20039;-71
2021/12/09 03:15:26;;;;;;;12.77;4.07;;;20.50;82.60;;;;;;5104725;28;20077;-71
2021/12/09 03:17:53;;;;;;;18.75;4.38;;;20.40;82.40;;;;;;5111441;27;20031;-71
2021/12/09 03:20:20;;;;;;;14.45;3.20;;;20.40;82.30;;;;;;5104860;28;20112;-71
2021/12/09 03:22:48;;;;;;;12.50;3.55;;;20.40;82.50;;;;;;5103650;28;20024;-71
2021/12/09 03:25:17;;;;;;;18.58;4.57;;;20.40;82.70;;;;;;5103291;27;20465;-72
2021/12/09 03:27:44;;;;;;;14.50;3.28;;;20.40;82.90;;;;;;5098804;28;20076;-72
2021/12/09 03:30:14;;;;;;;19.75;3.55;;;20.40;82.90;;;;;;5103342;28;20078;-70
2021/12/09 03:33:20;;;;;;;16.17;4.43;;;20.40;82.90;;;;;;5104181;28;20020;-73
2021/12/09 03:36:28;;;;;;;49.95;32.78;;;20.40;83.80;;;;;;5103671;28;20024;-70
2021/12/09 03:38:56;;;;;;;25.27;16.05;;;20.40;83.50;;;;;;5105882;28;20050;-70
2021/12/09 03:41:23;;;;;;;21.83;5.32;;;20.40;83.20;;;;;;5102082;28;20478;-71
2021/12/09 03:43:49;;;;;;;13.05;2.92;;;20.40;83.30;;;;;;5103587;28;20020;-71
2021/12/09 03:46:17;;;;;;;19.83;3.55;;;20.40;83.70;;;;;;5102354;28;20122;-70
2021/12/09 03:48:44;;;;;;;15.48;3.47;;;20.40;83.30;;;;;;5106047;28;20119;-71
2021/12/09 03:51:11;;;;;;;13.77;4.35;;;20.40;83.40;;;;;;5101772;28;20023;-71
2021/12/09 03:53:37;;;;;;;22.73;4.07;;;20.40;83.40;;;;;;5101818;28;20055;-69
2021/12/09 03:56:04;;;;;;;13.40;4.00;;;20.40;83.60;;;;;;5106588;28;20013;-76
2021/12/09 03:58:31;;;;;;;10.23;3.58;;;20.40;83.40;;;;;;5102949;28;20036;-80
2021/12/09 04:00:57;;;;;;;19.52;3.97;;;20.40;83.60;;;;;;5099891;28;20016;-70
2021/12/09 04:03:24;;;;;;;15.55;4.60;;;20.30;83.60;;;;;;5107592;28;20015;-71
2021/12/09 04:05:51;;;;;;;56.63;41.30;;;20.30;83.80;;;;;;5104234;28;20024;-70
2021/12/09 04:08:18;;;;;;;23.67;10.48;;;20.40;84.10;;;;;;5101655;28;20020;-80
2021/12/09 04:10:45;;;;;;;8.43;3.97;;;20.40;84.10;;;;;;5101760;28;20031;-71
2021/12/09 04:13:11;;;;;;;16.25;3.78;;;20.40;84.00;;;;;;5099437;28;20096;-72
2021/12/09 04:15:38;;;;;;;11.93;3.38;;;20.40;84.10;;;;;;5085169;28;20015;-74
2021/12/09 04:18:05;;;;;;;17.10;3.95;;;20.40;83.90;;;;;;5104135;28;20111;-70
2021/12/09 04:20:31;;;;;;;15.00;3.53;;;20.40;84.00;;;;;;5081319;28;20035;-71
2021/12/09 04:22:58;;;;;;;17.20;5.25;;;20.50;84.00;;;;;;5103283;28;20046;-70
2021/12/09 04:25:26;;;;;;;19.00;9.65;;;20.50;83.90;;;;;;5101968;28;20080;-71
2021/12/09 04:27:55;;;;;;;20.08;10.10;;;20.50;84.00;;;;;;5093186;28;20012;-70
2021/12/09 04:30:23;;;;;;;9.30;3.20;;;20.50;84.00;;;;;;5103123;28;20034;-69
2021/12/09 04:32:51;;;;;;;7.63;2.47;;;20.50;84.10;;;;;;5101438;28;20028;-71
2021/12/09 04:35:18;;;;;;;19.25;5.20;;;20.50;84.20;;;;;;5105279;28;20486;-68
2021/12/09 04:37:47;;;;;;;14.93;3.35;;;20.50;84.20;;;;;;5101293;28;20038;-69
2021/12/09 04:40:15;;;;;;;13.10;3.30;;;20.50;84.40;;;;;;5084663;28;20451;-71
2021/12/09 04:43:21;;;;;;;15.02;3.80;;;20.60;84.40;;;;;;5097253;28;20032;-72
2021/12/09 04:46:27;;;;;;;11.13;3.65;;;20.50;84.30;;;;;;5099745;27;20020;-68
2021/12/09 04:49:33;;;;;;;15.07;4.22;;;20.60;84.40;;;;;;5101905;27;20482;-68
2021/12/09 04:52:39;;;;;;;21.63;4.15;;;20.60;84.30;;;;;;5101856;27;20467;-69
2021/12/09 04:55:45;;;;;;;13.43;3.20;;;20.60;84.30;;;;;;5100891;28;20031;-70
2021/12/09 04:58:51;;;;;;;10.10;3.25;;;20.60;84.50;;;;;;5100338;27;20035;-73
2021/12/09 05:01:57;;;;;;;9.85;2.38;;;20.70;84.50;;;;;;5101108;27;20493;-70
2021/12/09 05:05:04;;;;;;;15.20;2.85;;;20.70;84.40;;;;;;5098064;27;20071;-71
2021/12/09 05:08:10;;;;;;;11.10;3.67;;;20.80;84.40;;;;;;5096793;28;20028;-72
2021/12/09 05:11:49;;;;;;;14.68;2.97;;;20.80;84.30;;;;;;5100402;27;20032;-73
2021/12/09 05:14:48;;;;;;;11.52;2.92;;;20.80;84.30;;;;;;5098101;27;20037;-75
2021/12/09 05:17:54;;;;;;;8.07;2.28;;;20.90;84.30;;;;;;5100083;27;20028;-70
2021/12/09 05:21:00;;;;;;;6.68;2.30;;;20.90;84.20;;;;;;5100791;28;20038;-73
2021/12/09 05:24:06;;;;;;;7.25;2.63;;;21.00;84.10;;;;;;5105902;27;20027;-70
2021/12/09 05:27:14;;;;;;;6.88;3.10;;;21.10;84.00;;;;;;5105904;27;20016;-71
2021/12/09 05:30:24;;;;;;;18.00;3.75;;;21.10;83.70;;;;;;5105506;27;20069;-71
2021/12/09 05:33:30;;;;;;;15.27;3.30;;;21.10;83.60;;;;;;5106142;27;20048;-71
2021/12/09 05:36:36;;;;;;;16.02;3.00;;;21.20;83.80;;;;;;5108594;27;20026;-73
2021/12/09 05:39:42;;;;;;;6.90;2.05;;;21.30;83.60;;;;;;5098036;27;20046;-72
2021/12/09 05:42:49;;;;;;;14.32;4.80;;;21.30;83.40;;;;;;5097922;28;20020;-73
2021/12/09 05:45:55;;;;;;;19.58;9.25;;;21.40;83.10;;;;;;5106122;27;20026;-73
2021/12/09 05:49:01;;;;;;;12.27;4.80;;;21.40;82.80;;;;;;5106151;27;20502;-71
2021/12/09 05:52:07;;;;;;;9.77;2.85;;;21.50;82.20;;;;;;5103579;27;20023;-71
2021/12/09 05:55:13;;;;;;;8.75;3.00;;;21.50;82.10;;;;;;5105506;27;20027;-73
2021/12/09 05:58:19;;;;;;;10.50;2.67;;;21.50;81.80;;;;;;5099879;27;20080;-71
2021/12/09 06:01:25;;;;;;;9.52;2.88;;;21.60;81.60;;;;;;5100002;27;20031;-72
2021/12/09 06:04:31;;;;;;;12.23;4.70;;;21.70;81.40;;;;;;5102299;27;20028;-72
2021/12/09 06:07:37;;;;;;;7.80;2.50;;;21.70;81.30;;;;;;5109383;27;20020;-72
2021/12/09 06:10:43;;;;;;;12.90;3.47;;;21.70;81.20;;;;;;5103719;27;20081;-72
2021/12/09 06:13:49;;;;;;;8.45;2.92;;;21.80;80.90;;;;;;5106203;27;20031;-75
2021/12/09 06:16:35;;;;;;;;;;;21.90;80.80;;;;;;5107035;27;20057;-72
2021/12/09 06:19:41;;;;;;;8.20;2.55;;;21.90;81.40;;;;;;5105293;27;19916;-72
2021/12/09 06:22:47;;;;;;;20.05;4.32;;;22.00;80.60;;;;;;5105384;27;20043;-73
2021/12/09 06:25:53;;;;;;;6.15;2.80;;;22.10;80.70;;;;;;5103595;27;20015;-73
2021/12/09 06:28:59;;;;;;;31.10;21.85;;;22.20;80.80;;;;;;5108431;27;20599;-74
2021/12/09 06:32:05;;;;;;;12.45;6.57;;;22.20;80.80;;;;;;5106065;27;20030;-74
2021/12/09 06:35:11;;;;;;;10.45;3.35;;;22.30;80.70;;;;;;5102718;27;20052;-75
2021/12/09 06:38:18;;;;;;;10.75;3.05;;;22.40;80.80;;;;;;5103208;27;20416;-75
2021/12/09 06:40:45;;;;;;;5.32;1.88;;;22.50;80.50;;;;;;5101600;27;20024;-75
2021/12/09 06:43:12;;;;;;;4.55;1.73;;;22.60;79.80;;;;;;5086302;28;20020;-75
2021/12/09 06:45:40;;;;;;;5.35;1.52;;;22.60;79.10;;;;;;5102767;27;20017;-75
2021/12/09 06:48:07;;;;;;;3.55;1.75;;;22.70;78.30;;;;;;5099741;27;20745;-74
2021/12/09 06:50:33;;;;;;;4.72;1.90;;;22.80;77.60;;;;;;5100313;27;20015;-74
2021/12/09 06:53:00;;;;;;;8.57;2.67;;;22.90;77.50;;;;;;5100583;27;20018;-73
2021/12/09 06:55:26;;;;;;;8.25;3.30;;;23.00;77.60;;;;;;5101535;27;20468;-74
2021/12/09 06:57:53;;;;;;;8.98;2.55;;;23.00;77.40;;;;;;5098870;27;20598;-74
2021/12/09 07:00:25;;;;;;;12.23;2.72;;;23.10;77.10;;;;;;5098836;27;20028;-74
2021/12/09 07:02:53;;;;;;;7.35;2.28;;;23.10;76.20;;;;;;5100997;27;20075;-74
2021/12/09 07:05:21;;;;;;;11.25;3.05;;;23.10;76.40;;;;;;5100094;27;20390;-74
2021/12/09 07:07:49;;;;;;;9.05;2.97;;;23.10;76.50;;;;;;5095166;28;20113;-74
2021/12/09 07:10:18;;;;;;;9.30;3.30;;;23.20;76.60;;;;;;5096185;27;20027;-74
2021/12/09 07:12:44;;;;;;;9.55;3.50;;;23.20;76.40;;;;;;5100840;27;20027;-74
2021/12/09 07:15:13;;;;;;;8.80;2.83;;;23.30;76.00;;;;;;5099921;27;20024;-74
2021/12/09 07:17:40;;;;;;;10.27;3.70;;;23.30;75.80;;;;;;5097727;27;20115;-74
2021/12/09 07:20:10;;;;;;;11.73;6.40;;;23.40;75.60;;;;;;5102519;27;20027;-74
2021/12/09 07:22:36;;;;;;;12.15;3.63;;;23.50;75.20;;;;;;5090946;27;20110;-74
2021/12/09 07:25:05;;;;;;;7.03;2.42;;;23.50;74.80;;;;;;5094901;27;20020;-75
2021/12/09 07:27:31;;;;;;;83.60;12.45;;;23.60;74.30;;;;;;5101756;27;20086;-73
2021/12/09 07:29:58;;;;;;;16.55;7.13;;;23.60;74.00;;;;;;5102597;27;20669;-75
2021/12/09 07:32:24;;;;;;;8.32;3.25;;;23.70;73.70;;;;;;5080419;28;20382;-75
2021/12/09 07:34:51;;;;;;;13.38;2.60;;;23.80;73.40;;;;;;5084877;28;20363;-74
2021/12/09 07:37:17;;;;;;;11.57;2.70;;;23.80;72.80;;;;;;5103235;27;20028;-75
2021/12/09 07:39:44;;;;;;;8.27;2.47;;;23.90;72.80;;;;;;5100927;28;20485;-75
2021/12/09 07:42:12;;;;;;;13.13;2.85;;;24.00;72.40;;;;;;5102719;28;20020;-74
2021/12/09 07:44:39;;;;;;;8.52;1.80;;;24.00;72.00;;;;;;5097269;28;20031;-74
2021/12/09 07:47:05;;;;;;;5.10;2.40;;;24.10;71.60;;;;;;5099272;28;20587;-74
2021/12/09 07:49:32;;;;;;;6.72;2.17;;;24.10;71.20;;;;;;5081446;28;20031;-72
2021/12/09 07:51:58;;;;;;;17.15;5.22;;;24.20;71.40;;;;;;5099386;28;20059;-74
2021/12/09 07:54:25;;;;;;;17.55;13.85;;;24.20;71.50;;;;;;5102670;28;20040;-73
2021/12/09 07:56:52;;;;;;;15.75;6.30;;;24.30;71.60;;;;;;5100760;28;20505;-75
2021/12/09 07:59:18;;;;;;;10.90;3.30;;;24.40;71.50;;;;;;5099313;28;20031;-73
2021/12/09 08:01:46;;;;;;;28.48;16.42;;;24.50;71.50;;;;;;5102486;28;20102;-73
2021/12/09 08:04:12;;;;;;;9.23;3.63;;;24.60;71.20;;;;;;5091707;28;20076;-73
2021/12/09 08:06:39;;;;;;;6.93;3.42;;;24.60;70.90;;;;;;5095522;28;20391;-74
2021/12/09 08:09:08;;;;;;;10.55;2.80;;;24.70;70.80;;;;;;5091910;28;20084;-74
2021/12/09 08:11:38;;;;;;;12.02;3.15;;;24.70;70.30;;;;;;5101302;28;20024;-74
2021/12/09 08:14:06;;;;;;;7.72;2.05;;;24.70;70.00;;;;;;5097663;28;20030;-74
2021/12/09 08:16:37;;;;;;;11.00;2.50;;;24.90;70.00;;;;;;5080883;28;20062;-74
2021/12/09 08:19:05;;;;;;;13.15;2.95;;;24.90;69.60;;;;;;5098247;28;20127;-74
2021/12/09 08:21:35;;;;;;;8.30;2.30;;;24.90;69.20;;;;;;5104262;27;20020;-74
2021/12/09 08:24:07;;;;;;;8.75;2.55;;;25.00;68.90;;;;;;5106158;27;20031;-74
2021/12/09 08:26:34;;;;;;;7.72;2.28;;;25.00;68.50;;;;;;5101797;27;20107;-75
2021/12/09 08:29:01;;;;;;;10.77;2.28;;;25.10;68.70;;;;;;5105203;27;20533;-74
2021/12/09 08:31:30;;;;;;;8.65;2.50;;;25.10;68.40;;;;;;5102206;27;20012;-73
2021/12/09 08:33:57;;;;;;;10.02;2.78;;;25.20;68.40;;;;;;5104396;27;20019;-74
2021/12/09 08:36:23;;;;;;;12.77;2.70;;;25.30;68.30;;;;;;5103754;27;20118;-74
2021/12/09 08:38:50;;;;;;;27.38;4.68;;;25.30;68.00;;;;;;5102735;27;20035;-74
2021/12/09 08:41:18;;;;;;;21.23;4.43;;;25.40;67.60;;;;;;5100781;27;20024;-77
2021/12/09 08:43:46;;;;;;;23.42;7.70;;;25.50;67.50;;;;;;5105510;27;20874;-74
2021/12/09 08:46:15;;;;;;;18.05;6.22;;;25.50;67.20;;;;;;5105249;27;20382;-74
2021/12/09 08:48:42;;;;;;;9.75;2.65;;;25.60;66.90;;;;;;5101056;27;20598;-74
2021/12/09 08:51:08;;;;;;;12.00;2.50;;;25.70;67.40;;;;;;5102274;27;20517;-75
2021/12/09 08:53:35;;;;;;;8.63;2.63;;;25.70;67.50;;;;;;5100201;27;20055;-74
2021/12/09 08:56:02;;;;;;;4.00;2.05;;;25.70;67.50;;;;;;5104039;27;20023;-76
2021/12/09 08:58:30;;;;;;;8.73;2.53;;;25.80;67.10;;;;;;5101939;27;20028;-74
2021/12/09 09:00:59;;;;;;;4.28;2.17;;;25.80;66.60;;;;;;5102971;27;20107;-74
2021/12/09 09:03:26;;;;;;;6.20;2.58;;;25.90;66.20;;;;;;5104488;27;20027;-75
2021/12/09 09:05:53;;;;;;;7.95;2.97;;;25.90;66.10;;;;;;5103788;27;20024;-75
2021/12/09 09:08:20;;;;;;;9.73;2.47;;;26.00;65.90;;;;;;5104005;27;20092;-74
2021/12/09 09:10:49;;;;;;;2.97;1.90;;;26.00;65.70;;;;;;5102317;27;20587;-74
2021/12/09 09:13:15;;;;;;;8.65;2.15;;;26.20;65.70;;;;;;5104922;27;20057;-74
2021/12/09 09:15:48;;;;;;;5.22;2.38;;;26.20;65.30;;;;;;5102329;27;20023;-75
2021/12/09 09:18:15;;;;;;;12.93;3.47;;;26.20;64.90;;;;;;5105437;27;20028;-74
2021/12/09 09:20:43;;;;;;;4.32;2.42;;;26.30;64.60;;;;;;5103832;27;20028;-74
2021/12/09 09:23:15;;;;;;;8.98;2.40;;;26.30;64.20;;;;;;5104181;27;20055;-73
2021/12/09 09:25:42;;;;;;;8.68;2.28;;;26.40;64.20;;;;;;5101664;27;20023;-75
2021/12/09 09:31:03;;;;;;;11.80;9.07;;;26.40;63.30;;;;;;5096384;27;20390;-74
2021/12/09 09:33:31;;;;;;;8.75;3.63;;;26.50;64.10;;;;;;5081526;28;20020;-74
2021/12/09 09:35:58;;;;;;;4.82;1.85;;;26.50;63.70;;;;;;5087369;28;20024;-74
2021/12/09 09:38:25;;;;;;;10.23;2.13;;;26.60;62.70;;;;;;5084183;28;20025;-74
2021/12/09 09:41:04;;;;;;;8.98;1.92;;;26.60;62.80;;;;;;5082361;28;20028;-75
2021/12/09 09:46:22;;;;;;;4.10;2.50;;;26.70;62.70;;;;;;5083826;28;20118;-75
2021/12/09 09:48:52;;;;;;;12.23;2.78;;;26.80;62.50;;;;;;5078896;28;20033;-75
2021/12/09 09:51:20;;;;;;;8.98;2.50;;;26.90;62.10;;;;;;5086514;28;20077;-73
2021/12/09 09:53:47;;;;;;;8.23;1.90;;;26.90;62.00;;;;;;5084086;28;20110;-73
2021/12/09 09:56:19;;;;;;;6.70;2.40;;;27.00;61.70;;;;;;5082572;28;20158;-75
2021/12/09 09:59:06;;;;;;;10.32;2.17;;;27.00;61.70;;;;;;5081466;28;20494;-72
2021/12/09 10:01:35;;;;;;;9.80;2.10;;;27.10;61.40;;;;;;5079395;28;20020;-71
2021/12/09 10:04:13;;;;;;;9.05;3.05;;;27.20;60.70;;;;;;5085577;28;20038;-71
2021/12/09 10:06:44;;;;;;;10.98;2.15;;;27.30;60.80;;;;;;5081952;28;20035;-72
2021/12/09 10:09:13;;;;;;;6.80;2.55;;;27.30;60.80;;;;;;5081650;28;20077;-70
2021/12/09 10:11:40;;;;;;;11.65;2.45;;;27.30;60.80;;;;;;5074927;28;20024;-70
2021/12/09 10:14:16;;;;;;;11.63;2.50;;;27.40;61.00;;;;;;5080895;28;20075;-71
2021/12/09 10:16:45;;;;;;;7.45;2.28;;;27.50;60.90;;;;;;5096298;28;20028;-71
2021/12/09 10:19:18;;;;;;;6.43;2.00;;;27.50;60.30;;;;;;5098992;28;20632;-71
2021/12/09 10:21:45;;;;;;;6.15;2.20;;;27.60;60.20;;;;;;5085522;28;20028;-70
2021/12/09 10:24:12;;;;;;;8.73;2.42;;;27.60;59.90;;;;;;5080694;28;20024;-70
2021/12/09 10:26:41;;;;;;;6.60;1.65;;;27.60;60.00;;;;;;5082584;28;20062;-72
2021/12/09 10:29:07;;;;;;;8.10;3.08;;;27.60;59.80;;;;;;5079421;28;20486;-72
2021/12/09 10:31:58;;;;;;;7.65;2.00;;;27.60;59.40;;;;;;5081948;28;20508;-76
2021/12/09 10:34:34;;;;;;;4.10;1.70;;;27.60;59.00;;;;;;5081846;28;20042;-73
2021/12/09 10:37:03;;;;;;;13.02;4.22;;;27.60;59.00;;;;;;5082046;28;20056;-70
2021/12/09 10:39:37;;;;;;;9.45;3.05;;;27.60;59.20;;;;;;5069887;28;20433;-75
2021/12/09 10:42:12;;;;;;;8.98;3.95;;;27.60;59.70;;;;;;5086201;28;20028;-75
2021/12/09 10:44:46;;;;;;;;;;;27.60;59.30;;;;;;5064726;28;20040;-75
2021/12/09 10:47:32;;;;;;;4.13;1.50;;;27.50;59.00;;;;;;5069477;28;19924;-71
2021/12/09 10:50:06;;;;;;;11.23;2.80;;;27.60;59.30;;;;;;5065112;28;20127;-70
2021/12/09 10:52:44;;;;;;;7.45;2.55;;;27.70;59.50;;;;;;5068938;28;20406;-70
2021/12/09 10:55:17;;;;;;;5.40;1.80;;;27.80;59.00;;;;;;5068153;28;20076;-67
2021/12/09 10:57:45;;;;;;;11.65;2.40;;;27.90;59.00;;;;;;5068189;28;20025;-72
2021/12/09 11:00:25;;;;;;;3.33;2.20;;;27.90;58.90;;;;;;5063510;28;20036;-77
2021/12/09 11:03:13;;;;;;;6.07;1.45;;;27.90;59.10;;;;;;5060769;28;20021;-72
2021/12/09 11:05:43;;;;;;;12.02;2.33;;;28.00;59.20;;;;;;5065199;28;20025;-74
2021/12/09 11:08:19;;;;;;;7.82;1.48;;;28.00;60.70;;;;;;5070101;28;20429;-76
2021/12/09 11:10:48;;;;;;;8.77;2.78;;;28.00;61.50;;;;;;5068112;28;20028;-73
2021/12/09 11:13:20;;;;;;;8.23;1.90;;;28.00;61.30;;;;;;5074561;28;20028;-72
2021/12/09 11:15:54;;;;;;;9.30;2.75;;;28.00;61.50;;;;;;5066108;28;20035;-73
2021/12/09 11:18:41;;;;;;;7.70;2.28;;;28.00;60.40;;;;;;5064044;28;20483;-71
2021/12/09 11:21:11;;;;;;;25.30;20.88;;;28.00;60.60;;;;;;5067906;28;20024;-72
2021/12/09 11:24:03;;;;;;;10.77;3.45;;;28.10;60.20;;;;;;5072064;28;20023;-70
2021/12/09 11:26:49;;;;;;;10.02;2.13;;;28.10;59.70;;;;;;5066813;28;20096;-70
2021/12/09 11:29:20;;;;;;;5.10;2.65;;;28.10;59.30;;;;;;5066513;28;20091;-72
2021/12/09 11:32:24;;;;;;;12.40;2.55;;;28.20;59.30;;;;;;5067954;28;20034;-78
2021/12/09 11:35:00;;;;;;;5.88;2.22;;;28.20;59.80;;;;;;5067274;28;20425;-70
2021/12/09 11:38:20;;;;;;;11.00;2.78;;;28.20;59.50;;;;;;5068829;28;20021;-70
2021/12/09 11:40:56;;;;;;;10.63;2.67;;;28.30;59.70;;;;;;5067559;28;20032;-71
2021/12/09 11:43:25;;;;;;;8.32;1.88;;;28.40;59.40;;;;;;5065642;28;20024;-72
2021/12/09 11:45:54;;;;;;;8.77;3.60;;;28.50;59.20;;;;;;5068675;28;20039;-71
2021/12/09 11:48:27;;;;;;;13.82;2.83;;;28.50;58.40;;;;;;5067048;28;20028;-71
2021/12/09 11:50:54;;;;;;;12.02;6.85;;;28.50;58.40;;;;;;5065554;28;20119;-74
2021/12/09 11:53:33;;;;;;;11.98;2.58;;;28.50;58.60;;;;;;5066806;28;20052;-71
2021/12/09 11:58:31;;;;;;;7.10;2.40;;;28.50;58.80;;;;;;5067328;28;20084;-72
2021/12/09 12:12:59;;;;;;;13.93;3.70;;;28.40;58.80;;;;;;5067151;28;20024;-71
2021/12/09 12:15:29;;;;;;;16.15;2.97;;;28.40;59.30;;;;;;5070661;28;20062;-71
2021/12/09 12:21:59;;;;;;;7.40;3.20;;;28.50;58.90;;;;;;5064373;28;20410;-71
2021/12/09 12:27:43;;;;;;;8.45;2.42;;;28.40;58.60;;;;;;5063268;28;20036;-76
2021/12/09 12:30:30;;;;;;;10.85;3.53;;;28.40;58.60;;;;;;5081954;28;20124;-74
2021/12/09 12:33:23;;;;;;;8.90;2.88;;;28.40;58.80;;;;;;5071693;28;20033;-70
2021/12/09 12:36:40;;;;;;;9.55;2.83;;;28.40;59.40;;;;;;5064992;28;20103;-71
2021/12/09 12:39:06;;;;;;;12.00;2.88;;;28.40;59.20;;;;;;5062440;28;20050;-71
2021/12/09 12:42:09;;;;;;;11.75;3.17;;;28.30;58.90;;;;;;5066188;28;20135;-72
2021/12/09 12:44:36;;;;;;;16.25;3.38;;;28.20;59.20;;;;;;5069046;28;20032;-73
2021/12/09 12:47:15;;;;;;;11.75;4.13;;;28.10;59.50;;;;;;5065787;28;20020;-71
2021/12/09 12:50:01;;;;;;;16.25;9.48;;;28.00;59.80;;;;;;5065450;28;20032;-70
2021/12/09 12:52:30;;;;;;;13.20;4.50;;;28.00;60.00;;;;;;5064379;28;20046;-70
2021/12/09 12:55:12;;;;;;;14.07;3.97;;;28.00;60.20;;;;;;5068323;28;20020;-71
2021/12/09 12:57:44;;;;;;;9.98;2.58;;;27.90;60.40;;;;;;5066871;28;20460;-70
2021/12/09 13:00:30;;;;;;;17.30;4.00;;;27.90;60.40;;;;;;5066131;28;20486;-70
2021/12/09 13:11:02;;;;;;;11.57;3.58;;;28.00;60.40;;;;;;5067541;28;20505;-70
2021/12/09 13:13:51;;;;;;;12.35;4.43;;;28.00;60.20;;;;;;5065609;28;20060;-70
2021/12/09 13:16:39;;;;;;;14.10;3.50;;;28.00;60.10;;;;;;5065455;28;20110;-71
2021/12/09 13:19:17;;;;;;;15.55;4.03;;;28.00;60.00;;;;;;5065039;28;20021;-71
2021/12/09 13:22:00;;;;;;;12.75;4.88;;;27.90;60.20;;;;;;5069014;28;20063;-71
2021/12/09 13:24:43;;;;;;;13.60;4.85;;;27.90;60.10;;;;;;5063873;28;20070;-73
2021/12/09 13:27:28;;;;;;;14.40;3.60;;;27.90;60.40;;;;;;5065995;28;20031;-69
2021/12/09 13:47:15;;;;;;;13.95;3.10;;;27.70;60.70;;;;;;5063589;28;20392;-70
2021/12/09 13:49:52;;;;;;;14.48;3.85;;;27.60;60.50;;;;;;5064654;28;20016;-71
2021/12/09 13:55:14;;;;;;;9.85;3.58;;;27.60;60.60;;;;;;5065876;28;20020;-76
2021/12/09 13:57:49;;;;;;;14.50;4.25;;;27.50;60.80;;;;;;5068226;28;20535;-70
2021/12/09 14:00:25;;;;;;;9.82;3.10;;;27.50;60.50;;;;;;5063234;28;20496;-70
2021/12/09 14:03:01;;;;;;;16.30;3.55;;;27.50;60.40;;;;;;5064324;28;20418;-70
2021/12/09 14:05:49;;;;;;;18.95;4.47;;;27.50;60.40;;;;;;5064889;28;20035;-71
2021/12/09 14:08:39;;;;;;;10.43;3.45;;;27.40;60.50;;;;;;5064625;28;20017;-71
2021/12/09 14:11:25;;;;;;;10.13;3.17;;;27.30;60.60;;;;;;5063983;28;20032;-72
2021/12/09 14:14:01;;;;;;;7.20;2.33;;;27.30;60.80;;;;;;5064102;28;20040;-71
2021/12/09 14:21:28;;;;;;;15.38;3.55;;;27.30;60.60;;;;;;5068242;28;20039;-72